sensor_id;sensor_type;location;lat;lon;timestamp;P1;durP1;ratioP1;P2;durP2;ratioP2
8365;SDS011;4220;42.502;24.188;2024-03-25T00:01:33;11.63;;;7.67;;
8365;SDS011;4220;42.502;24.188;2024-03-25T00:03:59;11.27;;;7.70;;
8365;SDS011;4220;42.502;24.188;2024-03-25T00:06:26;8.85;;;7.60;;
8365;SDS011;4220;42.502;24.188;2024-03-25T00:08:52;7.18;;;5.85;;
8365;SDS011;4220;42.502;24.188;2024-03-25T00:11:18;10.67;;;6.47;;
8365;SDS011;4220;42.502;24.188;2024-03-25T00:13:44;9.07;;;6.30;;
8365;SDS011;4220;42.502;24.188;2024-03-25T00:16:11;8.53;;;6.77;;
8365;SDS011;4220;42.502;24.188;2024-03-25T00:18:38;9.53;;;7.53;;
8365;SDS011;4220;42.502;24.188;2024-03-25T00:21:05;9.60;;;7.57;;
8365;SDS011;4220;42.502;24.188;2024-03-25T00:23:31;9.63;;;7.85;;
8365;SDS011;4220;42.502;24.188;2024-03-25T00:25:57;7.93;;;6.57;;
8365;SDS011;4220;42.502;24.188;2024-03-25T00:28:23;5.40;;;3.27;;
8365;SDS011;4220;42.502;24.188;2024-03-25T00:30:50;3.43;;;2.70;;
8365;SDS011;4220;42.502;24.188;2024-03-25T00:33:15;2.23;;;1.70;;
8365;SDS011;4220;42.502;24.188;2024-03-25T00:35:44;2.80;;;1.10;;
8365;SDS011;4220;42.502;24.188;2024-03-25T00:38:11;1.00;;;1.00;;
8365;SDS011;4220;42.502;24.188;2024-03-25T00:40:37;3.53;;;1.30;;
8365;SDS011;4220;42.502;24.188;2024-03-25T00:43:03;1.37;;;1.10;;
8365;SDS011;4220;42.502;24.188;2024-03-25T00:45:30;1.07;;;0.97;;
8365;SDS011;4220;42.502;24.188;2024-03-25T00:47:56;0.77;;;0.77;;
8365;SDS011;4220;42.502;24.188;2024-03-25T00:50:24;1.20;;;1.00;;
8365;SDS011;4220;42.502;24.188;2024-03-25T00:52:51;1.17;;;0.80;;
8365;SDS011;4220;42.502;24.188;2024-03-25T00:55:18;3.50;;;1.27;;
8365;SDS011;4220;42.502;24.188;2024-03-25T00:57:44;1.03;;;0.80;;
8365;SDS011;4220;42.502;24.188;2024-03-25T01:00:11;1.03;;;0.83;;
8365;SDS011;4220;42.502;24.188;2024-03-25T01:02:37;0.80;;;0.80;;
8365;SDS011;4220;42.502;24.188;2024-03-25T01:05:04;1.30;;;0.80;;
8365;SDS011;4220;42.502;24.188;2024-03-25T01:07:31;4.33;;;2.47;;
8365;SDS011;4220;42.502;24.188;2024-03-25T01:09:59;1.10;;;0.93;;
8365;SDS011;4220;42.502;24.188;2024-03-25T01:12:25;1.90;;;1.10;;
8365;SDS011;4220;42.502;24.188;2024-03-25T01:14:52;1.10;;;1.00;;
8365;SDS011;4220;42.502;24.188;2024-03-25T01:17:18;1.37;;;1.00;;
8365;SDS011;4220;42.502;24.188;2024-03-25T01:19:45;0.80;;;0.80;;
8365;SDS011;4220;42.502;24.188;2024-03-25T01:22:12;1.00;;;0.90;;
8365;SDS011;4220;42.502;24.188;2024-03-25T01:24:39;1.50;;;1.10;;
8365;SDS011;4220;42.502;24.188;2024-03-25T01:27:06;0.60;;;0.60;;
8365;SDS011;4220;42.502;24.188;2024-03-25T01:29:33;2.40;;;0.73;;
8365;SDS011;4220;42.502;24.188;2024-03-25T01:31:59;0.67;;;0.67;;
8365;SDS011;4220;42.502;24.188;2024-03-25T01:34:27;0.60;;;0.60;;
8365;SDS011;4220;42.502;24.188;2024-03-25T01:36:53;0.70;;;0.67;;
8365;SDS011;4220;42.502;24.188;2024-03-25T01:39:20;0.63;;;0.63;;
8365;SDS011;4220;42.502;24.188;2024-03-25T01:41:45;1.60;;;0.60;;
8365;SDS011;4220;42.502;24.188;2024-03-25T01:44:13;0.80;;;0.80;;
8365;SDS011;4220;42.502;24.188;2024-03-25T01:46:39;0.60;;;0.60;;
8365;SDS011;4220;42.502;24.188;2024-03-25T01:49:08;0.80;;;0.70;;
8365;SDS011;4220;42.502;24.188;2024-03-25T01:51:34;0.50;;;0.50;;
8365;SDS011;4220;42.502;24.188;2024-03-25T01:54:02;0.50;;;0.50;;
8365;SDS011;4220;42.502;24.188;2024-03-25T01:56:28;0.90;;;0.70;;
8365;SDS011;4220;42.502;24.188;2024-03-25T01:58:59;0.90;;;0.60;;
8365;SDS011;4220;42.502;24.188;2024-03-25T02:01:27;0.80;;;0.80;;
8365;SDS011;4220;42.502;24.188;2024-03-25T02:03:55;1.00;;;0.90;;
8365;SDS011;4220;42.502;24.188;2024-03-25T02:06:22;1.00;;;0.90;;
8365;SDS011;4220;42.502;24.188;2024-03-25T02:08:53;1.03;;;0.93;;
8365;SDS011;4220;42.502;24.188;2024-03-25T02:11:21;2.50;;;0.80;;
8365;SDS011;4220;42.502;24.188;2024-03-25T02:13:49;0.60;;;0.60;;
8365;SDS011;4220;42.502;24.188;2024-03-25T02:16:15;0.67;;;0.67;;
8365;SDS011;4220;42.502;24.188;2024-03-25T02:18:43;1.17;;;0.70;;
8365;SDS011;4220;42.502;24.188;2024-03-25T02:21:09;0.70;;;0.70;;
8365;SDS011;4220;42.502;24.188;2024-03-25T02:23:37;1.07;;;0.90;;
8365;SDS011;4220;42.502;24.188;2024-03-25T02:26:05;0.63;;;0.63;;
8365;SDS011;4220;42.502;24.188;2024-03-25T02:28:32;0.87;;;0.63;;
8365;SDS011;4220;42.502;24.188;2024-03-25T02:30:57;0.70;;;0.70;;
8365;SDS011;4220;42.502;24.188;2024-03-25T02:33:24;1.13;;;0.67;;
8365;SDS011;4220;42.502;24.188;2024-03-25T02:35:50;0.70;;;0.70;;
8365;SDS011;4220;42.502;24.188;2024-03-25T02:38:17;1.13;;;1.03;;
8365;SDS011;4220;42.502;24.188;2024-03-25T02:40:44;1.20;;;1.10;;
8365;SDS011;4220;42.502;24.188;2024-03-25T02:43:12;0.80;;;0.80;;
8365;SDS011;4220;42.502;24.188;2024-03-25T02:45:39;1.30;;;0.90;;
8365;SDS011;4220;42.502;24.188;2024-03-25T02:48:05;0.50;;;0.50;;
8365;SDS011;4220;42.502;24.188;2024-03-25T02:50:31;0.60;;;0.60;;
8365;SDS011;4220;42.502;24.188;2024-03-25T02:52:58;0.60;;;0.60;;
8365;SDS011;4220;42.502;24.188;2024-03-25T02:55:24;1.30;;;0.97;;
8365;SDS011;4220;42.502;24.188;2024-03-25T02:57:51;0.93;;;0.83;;
8365;SDS011;4220;42.502;24.188;2024-03-25T03:00:18;1.07;;;0.80;;
8365;SDS011;4220;42.502;24.188;2024-03-25T03:02:45;2.10;;;0.93;;
8365;SDS011;4220;42.502;24.188;2024-03-25T03:05:10;2.10;;;1.10;;
8365;SDS011;4220;42.502;24.188;2024-03-25T03:07:37;2.60;;;1.50;;
8365;SDS011;4220;42.502;24.188;2024-03-25T03:10:03;1.10;;;0.90;;
8365;SDS011;4220;42.502;24.188;2024-03-25T03:12:30;0.70;;;0.70;;
8365;SDS011;4220;42.502;24.188;2024-03-25T03:14:56;1.30;;;1.20;;
8365;SDS011;4220;42.502;24.188;2024-03-25T03:17:24;1.20;;;1.10;;
8365;SDS011;4220;42.502;24.188;2024-03-25T03:19:49;0.80;;;0.80;;
8365;SDS011;4220;42.502;24.188;2024-03-25T03:22:16;1.10;;;1.00;;
8365;SDS011;4220;42.502;24.188;2024-03-25T03:24:42;0.70;;;0.70;;
8365;SDS011;4220;42.502;24.188;2024-03-25T03:27:09;0.63;;;0.63;;
8365;SDS011;4220;42.502;24.188;2024-03-25T03:29:34;1.20;;;1.10;;
8365;SDS011;4220;42.502;24.188;2024-03-25T03:32:01;0.90;;;0.90;;
8365;SDS011;4220;42.502;24.188;2024-03-25T03:34:28;1.40;;;1.30;;
8365;SDS011;4220;42.502;24.188;2024-03-25T03:36:55;2.97;;;1.10;;
8365;SDS011;4220;42.502;24.188;2024-03-25T03:39:21;1.53;;;1.20;;
8365;SDS011;4220;42.502;24.188;2024-03-25T03:41:47;1.40;;;1.20;;
8365;SDS011;4220;42.502;24.188;2024-03-25T03:44:13;1.40;;;1.30;;
8365;SDS011;4220;42.502;24.188;2024-03-25T03:46:40;2.63;;;1.93;;
8365;SDS011;4220;42.502;24.188;2024-03-25T03:49:06;1.60;;;1.50;;
8365;SDS011;4220;42.502;24.188;2024-03-25T03:51:34;1.33;;;1.13;;
8365;SDS011;4220;42.502;24.188;2024-03-25T03:54:00;1.70;;;1.50;;
8365;SDS011;4220;42.502;24.188;2024-03-25T03:56:26;1.87;;;1.30;;
8365;SDS011;4220;42.502;24.188;2024-03-25T03:58:52;1.50;;;1.40;;
8365;SDS011;4220;42.502;24.188;2024-03-25T04:01:19;1.40;;;1.30;;
8365;SDS011;4220;42.502;24.188;2024-03-25T04:03:44;1.90;;;1.70;;
8365;SDS011;4220;42.502;24.188;2024-03-25T04:06:12;2.17;;;1.67;;
8365;SDS011;4220;42.502;24.188;2024-03-25T04:08:40;1.50;;;1.40;;
8365;SDS011;4220;42.502;24.188;2024-03-25T04:11:07;0.90;;;0.90;;
8365;SDS011;4220;42.502;24.188;2024-03-25T04:13:33;1.30;;;1.20;;
8365;SDS011;4220;42.502;24.188;2024-03-25T04:16:00;1.63;;;1.40;;
8365;SDS011;4220;42.502;24.188;2024-03-25T04:18:28;2.40;;;1.63;;
8365;SDS011;4220;42.502;24.188;2024-03-25T04:20:54;1.13;;;1.10;;
8365;SDS011;4220;42.502;24.188;2024-03-25T04:23:20;1.40;;;1.30;;
8365;SDS011;4220;42.502;24.188;2024-03-25T04:25:48;1.20;;;1.10;;
8365;SDS011;4220;42.502;24.188;2024-03-25T04:28:14;1.40;;;1.30;;
8365;SDS011;4220;42.502;24.188;2024-03-25T04:30:41;1.90;;;1.70;;
8365;SDS011;4220;42.502;24.188;2024-03-25T04:33:07;2.33;;;2.00;;
8365;SDS011;4220;42.502;24.188;2024-03-25T04:35:34;1.87;;;1.70;;
8365;SDS011;4220;42.502;24.188;2024-03-25T04:38:00;1.80;;;1.70;;
8365;SDS011;4220;42.502;24.188;2024-03-25T04:40:26;2.00;;;1.40;;
8365;SDS011;4220;42.502;24.188;2024-03-25T04:42:53;1.80;;;1.70;;
8365;SDS011;4220;42.502;24.188;2024-03-25T04:45:19;1.70;;;1.60;;
8365;SDS011;4220;42.502;24.188;2024-03-25T04:47:44;1.20;;;1.10;;
8365;SDS011;4220;42.502;24.188;2024-03-25T04:50:10;1.80;;;1.70;;
8365;SDS011;4220;42.502;24.188;2024-03-25T04:52:36;4.97;;;2.57;;
8365;SDS011;4220;42.502;24.188;2024-03-25T04:55:02;2.03;;;1.83;;
8365;SDS011;4220;42.502;24.188;2024-03-25T04:57:28;2.47;;;2.03;;
8365;SDS011;4220;42.502;24.188;2024-03-25T04:59:55;1.70;;;1.60;;
8365;SDS011;4220;42.502;24.188;2024-03-25T05:02:20;4.23;;;2.37;;
8365;SDS011;4220;42.502;24.188;2024-03-25T05:04:46;2.10;;;1.90;;
8365;SDS011;4220;42.502;24.188;2024-03-25T05:07:12;2.40;;;2.10;;
8365;SDS011;4220;42.502;24.188;2024-03-25T05:09:38;2.00;;;1.80;;
8365;SDS011;4220;42.502;24.188;2024-03-25T05:12:04;2.67;;;2.30;;
8365;SDS011;4220;42.502;24.188;2024-03-25T05:14:30;2.30;;;1.93;;
8365;SDS011;4220;42.502;24.188;2024-03-25T05:16:57;1.97;;;1.70;;
8365;SDS011;4220;42.502;24.188;2024-03-25T05:19:22;2.80;;;2.60;;
8365;SDS011;4220;42.502;24.188;2024-03-25T05:21:48;3.20;;;2.90;;
8365;SDS011;4220;42.502;24.188;2024-03-25T05:24:14;2.77;;;2.47;;
8365;SDS011;4220;42.502;24.188;2024-03-25T05:26:40;2.53;;;2.33;;
8365;SDS011;4220;42.502;24.188;2024-03-25T05:29:05;3.80;;;3.10;;
8365;SDS011;4220;42.502;24.188;2024-03-25T05:31:31;4.30;;;3.57;;
8365;SDS011;4220;42.502;24.188;2024-03-25T05:33:58;3.13;;;2.57;;
8365;SDS011;4220;42.502;24.188;2024-03-25T05:36:25;5.97;;;4.53;;
8365;SDS011;4220;42.502;24.188;2024-03-25T05:38:50;3.87;;;3.43;;
8365;SDS011;4220;42.502;24.188;2024-03-25T05:41:16;4.90;;;3.43;;
8365;SDS011;4220;42.502;24.188;2024-03-25T05:43:42;4.07;;;3.40;;
8365;SDS011;4220;42.502;24.188;2024-03-25T05:46:08;4.97;;;3.80;;
8365;SDS011;4220;42.502;24.188;2024-03-25T05:48:33;4.60;;;4.00;;
8365;SDS011;4220;42.502;24.188;2024-03-25T05:51:01;4.90;;;3.90;;
8365;SDS011;4220;42.502;24.188;2024-03-25T05:53:28;3.50;;;3.20;;
8365;SDS011;4220;42.502;24.188;2024-03-25T05:55:54;4.90;;;3.57;;
8365;SDS011;4220;42.502;24.188;2024-03-25T05:58:20;4.80;;;3.37;;
8365;SDS011;4220;42.502;24.188;2024-03-25T06:00:49;4.37;;;3.63;;
8365;SDS011;4220;42.502;24.188;2024-03-25T06:03:15;3.90;;;3.17;;
8365;SDS011;4220;42.502;24.188;2024-03-25T06:05:41;5.53;;;3.80;;
8365;SDS011;4220;42.502;24.188;2024-03-25T06:08:08;2.83;;;2.63;;
8365;SDS011;4220;42.502;24.188;2024-03-25T06:10:35;5.37;;;4.50;;
8365;SDS011;4220;42.502;24.188;2024-03-25T06:13:01;4.50;;;3.47;;
8365;SDS011;4220;42.502;24.188;2024-03-25T06:15:27;4.77;;;3.50;;
8365;SDS011;4220;42.502;24.188;2024-03-25T06:17:53;5.33;;;4.57;;
8365;SDS011;4220;42.502;24.188;2024-03-25T06:20:19;5.23;;;3.60;;
8365;SDS011;4220;42.502;24.188;2024-03-25T06:22:44;5.20;;;4.20;;
8365;SDS011;4220;42.502;24.188;2024-03-25T06:25:12;5.70;;;4.20;;
8365;SDS011;4220;42.502;24.188;2024-03-25T06:27:37;4.17;;;3.40;;
8365;SDS011;4220;42.502;24.188;2024-03-25T06:30:03;4.43;;;3.57;;
8365;SDS011;4220;42.502;24.188;2024-03-25T06:32:45;4.27;;;2.87;;
8365;SDS011;4220;42.502;24.188;2024-03-25T06:35:25;3.33;;;3.03;;
8365;SDS011;4220;42.502;24.188;2024-03-25T06:37:51;3.20;;;2.90;;
8365;SDS011;4220;42.502;24.188;2024-03-25T06:40:18;4.13;;;3.60;;
8365;SDS011;4220;42.502;24.188;2024-03-25T06:42:44;5.77;;;4.17;;
8365;SDS011;4220;42.502;24.188;2024-03-25T06:45:10;4.37;;;3.43;;
8365;SDS011;4220;42.502;24.188;2024-03-25T06:47:36;3.77;;;2.57;;
8365;SDS011;4220;42.502;24.188;2024-03-25T06:50:01;8.67;;;4.73;;
8365;SDS011;4220;42.502;24.188;2024-03-25T06:52:28;5.07;;;3.93;;
8365;SDS011;4220;42.502;24.188;2024-03-25T06:54:53;9.20;;;5.83;;
8365;SDS011;4220;42.502;24.188;2024-03-25T06:57:21;7.63;;;4.80;;
8365;SDS011;4220;42.502;24.188;2024-03-25T06:59:46;7.47;;;5.20;;
8365;SDS011;4220;42.502;24.188;2024-03-25T07:02:12;7.20;;;4.90;;
8365;SDS011;4220;42.502;24.188;2024-03-25T07:04:38;5.23;;;3.43;;
8365;SDS011;4220;42.502;24.188;2024-03-25T07:07:04;8.00;;;5.43;;
8365;SDS011;4220;42.502;24.188;2024-03-25T07:09:30;7.97;;;5.70;;
8365;SDS011;4220;42.502;24.188;2024-03-25T07:11:55;7.93;;;5.67;;
8365;SDS011;4220;42.502;24.188;2024-03-25T07:14:23;10.10;;;6.93;;
8365;SDS011;4220;42.502;24.188;2024-03-25T07:16:48;7.50;;;5.40;;
8365;SDS011;4220;42.502;24.188;2024-03-25T07:19:14;8.13;;;5.43;;
8365;SDS011;4220;42.502;24.188;2024-03-25T07:21:40;6.00;;;4.80;;
8365;SDS011;4220;42.502;24.188;2024-03-25T07:24:05;10.43;;;5.07;;
8365;SDS011;4220;42.502;24.188;2024-03-25T07:26:31;7.17;;;5.17;;
8365;SDS011;4220;42.502;24.188;2024-03-25T07:28:57;4.80;;;4.17;;
8365;SDS011;4220;42.502;24.188;2024-03-25T07:31:24;5.57;;;4.30;;
8365;SDS011;4220;42.502;24.188;2024-03-25T07:33:50;5.90;;;3.50;;
8365;SDS011;4220;42.502;24.188;2024-03-25T07:36:16;5.30;;;4.27;;
8365;SDS011;4220;42.502;24.188;2024-03-25T07:38:41;7.30;;;4.97;;
8365;SDS011;4220;42.502;24.188;2024-03-25T07:41:07;4.40;;;4.00;;
8365;SDS011;4220;42.502;24.188;2024-03-25T07:43:34;5.90;;;4.30;;
8365;SDS011;4220;42.502;24.188;2024-03-25T07:45:59;7.57;;;4.17;;
8365;SDS011;4220;42.502;24.188;2024-03-25T07:48:27;5.20;;;4.40;;
8365;SDS011;4220;42.502;24.188;2024-03-25T07:50:52;6.90;;;4.77;;
8365;SDS011;4220;42.502;24.188;2024-03-25T07:53:18;7.43;;;5.43;;
8365;SDS011;4220;42.502;24.188;2024-03-25T07:55:44;6.30;;;4.60;;
8365;SDS011;4220;42.502;24.188;2024-03-25T07:58:09;7.87;;;5.03;;
8365;SDS011;4220;42.502;24.188;2024-03-25T08:00:35;7.13;;;5.83;;
8365;SDS011;4220;42.502;24.188;2024-03-25T08:03:01;6.57;;;4.60;;
8365;SDS011;4220;42.502;24.188;2024-03-25T08:05:30;7.93;;;5.83;;
8365;SDS011;4220;42.502;24.188;2024-03-25T08:07:56;6.10;;;5.13;;
8365;SDS011;4220;42.502;24.188;2024-03-25T08:10:21;3.83;;;3.37;;
8365;SDS011;4220;42.502;24.188;2024-03-25T08:12:47;6.30;;;4.37;;
8365;SDS011;4220;42.502;24.188;2024-03-25T08:15:13;8.50;;;4.83;;
8365;SDS011;4220;42.502;24.188;2024-03-25T08:17:39;6.93;;;5.07;;
8365;SDS011;4220;42.502;24.188;2024-03-25T08:20:05;4.30;;;2.77;;
8365;SDS011;4220;42.502;24.188;2024-03-25T08:22:33;5.63;;;3.70;;
8365;SDS011;4220;42.502;24.188;2024-03-25T08:24:59;4.70;;;3.40;;
8365;SDS011;4220;42.502;24.188;2024-03-25T08:27:25;4.80;;;4.10;;
8365;SDS011;4220;42.502;24.188;2024-03-25T08:29:51;8.83;;;4.37;;
8365;SDS011;4220;42.502;24.188;2024-03-25T08:32:17;6.10;;;2.83;;
8365;SDS011;4220;42.502;24.188;2024-03-25T08:34:42;3.90;;;3.37;;
8365;SDS011;4220;42.502;24.188;2024-03-25T08:37:08;4.97;;;4.30;;
8365;SDS011;4220;42.502;24.188;2024-03-25T08:39:35;3.80;;;3.37;;
8365;SDS011;4220;42.502;24.188;2024-03-25T08:42:01;7.53;;;3.80;;
8365;SDS011;4220;42.502;24.188;2024-03-25T08:44:27;4.33;;;3.93;;
8365;SDS011;4220;42.502;24.188;2024-03-25T08:46:52;4.33;;;3.90;;
8365;SDS011;4220;42.502;24.188;2024-03-25T08:49:18;4.60;;;4.20;;
8365;SDS011;4220;42.502;24.188;2024-03-25T08:51:44;5.47;;;3.97;;
8365;SDS011;4220;42.502;24.188;2024-03-25T08:54:10;5.63;;;3.70;;
8365;SDS011;4220;42.502;24.188;2024-03-25T08:56:37;5.87;;;3.77;;
8365;SDS011;4220;42.502;24.188;2024-03-25T08:59:03;3.37;;;3.07;;
8365;SDS011;4220;42.502;24.188;2024-03-25T09:01:28;3.63;;;2.93;;
8365;SDS011;4220;42.502;24.188;2024-03-25T09:03:54;5.10;;;3.00;;
8365;SDS011;4220;42.502;24.188;2024-03-25T09:06:20;3.83;;;2.70;;
8365;SDS011;4220;42.502;24.188;2024-03-25T09:08:46;4.13;;;2.73;;
8365;SDS011;4220;42.502;24.188;2024-03-25T09:11:30;3.00;;;2.67;;
8365;SDS011;4220;42.502;24.188;2024-03-25T09:13:57;3.03;;;2.33;;
8365;SDS011;4220;42.502;24.188;2024-03-25T09:16:23;3.20;;;2.90;;
8365;SDS011;4220;42.502;24.188;2024-03-25T09:18:49;5.10;;;3.50;;
8365;SDS011;4220;42.502;24.188;2024-03-25T09:21:15;4.80;;;3.80;;
8365;SDS011;4220;42.502;24.188;2024-03-25T09:23:41;4.03;;;2.93;;
8365;SDS011;4220;42.502;24.188;2024-03-25T09:26:06;3.50;;;3.13;;
8365;SDS011;4220;42.502;24.188;2024-03-25T09:28:32;5.53;;;3.93;;
8365;SDS011;4220;42.502;24.188;2024-03-25T09:30:59;5.13;;;3.23;;
8365;SDS011;4220;42.502;24.188;2024-03-25T09:33:25;7.20;;;4.78;;
8365;SDS011;4220;42.502;24.188;2024-03-25T09:35:51;5.63;;;3.92;;
8365;SDS011;4220;42.502;24.188;2024-03-25T09:38:16;4.00;;;2.13;;
8365;SDS011;4220;42.502;24.188;2024-03-25T09:40:42;2.33;;;1.48;;
8365;SDS011;4220;42.502;24.188;2024-03-25T09:43:10;4.10;;;2.25;;
8365;SDS011;4220;42.502;24.188;2024-03-25T09:45:42;1.85;;;1.30;;
8365;SDS011;4220;42.502;24.188;2024-03-25T09:48:10;2.00;;;1.42;;
8365;SDS011;4220;42.502;24.188;2024-03-25T09:50:37;2.20;;;1.95;;
8365;SDS011;4220;42.502;24.188;2024-03-25T09:53:04;1.20;;;1.10;;
8365;SDS011;4220;42.502;24.188;2024-03-25T09:55:30;2.92;;;2.08;;
8365;SDS011;4220;42.502;24.188;2024-03-25T09:57:56;1.40;;;1.30;;
8365;SDS011;4220;42.502;24.188;2024-03-25T10:00:23;2.13;;;1.70;;
8365;SDS011;4220;42.502;24.188;2024-03-25T10:02:49;3.53;;;2.58;;
8365;SDS011;4220;42.502;24.188;2024-03-25T10:05:16;2.55;;;1.90;;
8365;SDS011;4220;42.502;24.188;2024-03-25T10:07:42;3.08;;;2.35;;
8365;SDS011;4220;42.502;24.188;2024-03-25T10:10:08;3.08;;;1.83;;
8365;SDS011;4220;42.502;24.188;2024-03-25T10:12:35;3.92;;;2.42;;
8365;SDS011;4220;42.502;24.188;2024-03-25T10:15:01;2.22;;;1.80;;
8365;SDS011;4220;42.502;24.188;2024-03-25T10:17:29;5.63;;;1.67;;
8365;SDS011;4220;42.502;24.188;2024-03-25T10:19:55;2.33;;;1.90;;
8365;SDS011;4220;42.502;24.188;2024-03-25T10:22:22;2.47;;;1.27;;
8365;SDS011;4220;42.502;24.188;2024-03-25T10:24:48;3.47;;;1.50;;
8365;SDS011;4220;42.502;24.188;2024-03-25T10:27:17;1.60;;;1.13;;
8365;SDS011;4220;42.502;24.188;2024-03-25T10:29:44;1.50;;;1.40;;
8365;SDS011;4220;42.502;24.188;2024-03-25T10:32:10;1.92;;;1.65;;
8365;SDS011;4220;42.502;24.188;2024-03-25T10:34:35;4.07;;;2.75;;
8365;SDS011;4220;42.502;24.188;2024-03-25T10:37:01;3.15;;;2.60;;
8365;SDS011;4220;42.502;24.188;2024-03-25T10:39:31;13.20;;;3.65;;
8365;SDS011;4220;42.502;24.188;2024-03-25T10:41:58;4.35;;;3.60;;
8365;SDS011;4220;42.502;24.188;2024-03-25T10:44:26;3.67;;;3.30;;
8365;SDS011;4220;42.502;24.188;2024-03-25T10:47:00;4.43;;;3.03;;
8365;SDS011;4220;42.502;24.188;2024-03-25T10:49:32;3.42;;;2.80;;
8365;SDS011;4220;42.502;24.188;2024-03-25T10:52:00;4.22;;;3.08;;
8365;SDS011;4220;42.502;24.188;2024-03-25T10:54:28;3.85;;;2.83;;
8365;SDS011;4220;42.502;24.188;2024-03-25T10:56:58;3.55;;;3.00;;
8365;SDS011;4220;42.502;24.188;2024-03-25T10:59:24;3.35;;;2.75;;
8365;SDS011;4220;42.502;24.188;2024-03-25T11:01:52;4.05;;;2.88;;
8365;SDS011;4220;42.502;24.188;2024-03-25T11:04:18;10.10;;;3.13;;
8365;SDS011;4220;42.502;24.188;2024-03-25T11:06:44;4.22;;;2.20;;
8365;SDS011;4220;42.502;24.188;2024-03-25T11:09:10;3.03;;;2.37;;
8365;SDS011;4220;42.502;24.188;2024-03-25T11:11:35;2.83;;;1.80;;
8365;SDS011;4220;42.502;24.188;2024-03-25T11:14:04;6.47;;;2.10;;
8365;SDS011;4220;42.502;24.188;2024-03-25T11:16:29;1.60;;;1.50;;
8365;SDS011;4220;42.502;24.188;2024-03-25T11:19:00;1.53;;;1.33;;
8365;SDS011;4220;42.502;24.188;2024-03-25T11:21:27;3.28;;;2.70;;
8365;SDS011;4220;42.502;24.188;2024-03-25T11:23:53;2.67;;;1.92;;
8365;SDS011;4220;42.502;24.188;2024-03-25T11:26:19;2.03;;;1.58;;
8365;SDS011;4220;42.502;24.188;2024-03-25T11:28:46;3.10;;;1.90;;
8365;SDS011;4220;42.502;24.188;2024-03-25T11:31:13;2.05;;;1.80;;
8365;SDS011;4220;42.502;24.188;2024-03-25T11:33:40;2.72;;;1.60;;
8365;SDS011;4220;42.502;24.188;2024-03-25T11:36:06;3.40;;;2.20;;
8365;SDS011;4220;42.502;24.188;2024-03-25T11:38:32;1.65;;;1.55;;
8365;SDS011;4220;42.502;24.188;2024-03-25T11:40:58;4.30;;;3.67;;
8365;SDS011;4220;42.502;24.188;2024-03-25T11:43:24;2.60;;;2.40;;
8365;SDS011;4220;42.502;24.188;2024-03-25T11:45:50;5.23;;;3.40;;
8365;SDS011;4220;42.502;24.188;2024-03-25T11:48:17;3.43;;;2.97;;
8365;SDS011;4220;42.502;24.188;2024-03-25T11:50:44;2.87;;;2.40;;
8365;SDS011;4220;42.502;24.188;2024-03-25T11:53:12;3.07;;;2.77;;
8365;SDS011;4220;42.502;24.188;2024-03-25T11:55:38;3.70;;;3.10;;
8365;SDS011;4220;42.502;24.188;2024-03-25T11:58:05;7.87;;;3.63;;
8365;SDS011;4220;42.502;24.188;2024-03-25T12:00:31;5.87;;;3.40;;
8365;SDS011;4220;42.502;24.188;2024-03-25T12:02:57;6.00;;;4.50;;
8365;SDS011;4220;42.502;24.188;2024-03-25T12:05:24;4.60;;;4.20;;
8365;SDS011;4220;42.502;24.188;2024-03-25T12:07:50;3.97;;;3.43;;
8365;SDS011;4220;42.502;24.188;2024-03-25T12:10:16;5.97;;;3.77;;
8365;SDS011;4220;42.502;24.188;2024-03-25T12:13:00;6.57;;;4.23;;
8365;SDS011;4220;42.502;24.188;2024-03-25T12:15:26;6.30;;;4.27;;
8365;SDS011;4220;42.502;24.188;2024-03-25T12:17:52;11.77;;;4.43;;
8365;SDS011;4220;42.502;24.188;2024-03-25T12:20:19;10.63;;;4.97;;
8365;SDS011;4220;42.502;24.188;2024-03-25T12:22:48;3.50;;;2.67;;
8365;SDS011;4220;42.502;24.188;2024-03-25T12:25:14;2.50;;;1.97;;
8365;SDS011;4220;42.502;24.188;2024-03-25T12:27:40;2.93;;;2.50;;
8365;SDS011;4220;42.502;24.188;2024-03-25T12:30:07;2.97;;;2.03;;
8365;SDS011;4220;42.502;24.188;2024-03-25T12:32:37;2.93;;;2.47;;
8365;SDS011;4220;42.502;24.188;2024-03-25T12:35:03;4.07;;;3.00;;
8365;SDS011;4220;42.502;24.188;2024-03-25T12:37:32;7.67;;;4.70;;
8365;SDS011;4220;42.502;24.188;2024-03-25T12:40:00;4.77;;;3.03;;
8365;SDS011;4220;42.502;24.188;2024-03-25T12:42:26;4.17;;;2.50;;
8365;SDS011;4220;42.502;24.188;2024-03-25T12:44:52;4.20;;;2.83;;
8365;SDS011;4220;42.502;24.188;2024-03-25T12:47:18;4.40;;;2.77;;
8365;SDS011;4220;42.502;24.188;2024-03-25T12:49:44;3.17;;;2.87;;
8365;SDS011;4220;42.502;24.188;2024-03-25T12:52:10;5.13;;;2.93;;
8365;SDS011;4220;42.502;24.188;2024-03-25T12:54:36;3.70;;;2.60;;
8365;SDS011;4220;42.502;24.188;2024-03-25T12:57:03;7.63;;;3.23;;
8365;SDS011;4220;42.502;24.188;2024-03-25T12:59:29;2.47;;;2.17;;
8365;SDS011;4220;42.502;24.188;2024-03-25T13:01:55;3.07;;;2.43;;
8365;SDS011;4220;42.502;24.188;2024-03-25T13:04:21;4.97;;;2.93;;
8365;SDS011;4220;42.502;24.188;2024-03-25T13:06:47;4.20;;;3.10;;
8365;SDS011;4220;42.502;24.188;2024-03-25T13:09:12;3.00;;;2.67;;
8365;SDS011;4220;42.502;24.188;2024-03-25T13:11:38;3.37;;;2.30;;
8365;SDS011;4220;42.502;24.188;2024-03-25T13:14:05;2.43;;;2.23;;
8365;SDS011;4220;42.502;24.188;2024-03-25T13:16:31;2.60;;;2.40;;
8365;SDS011;4220;42.502;24.188;2024-03-25T13:18:57;4.20;;;3.10;;
8365;SDS011;4220;42.502;24.188;2024-03-25T13:21:23;3.33;;;2.90;;
8365;SDS011;4220;42.502;24.188;2024-03-25T13:23:49;2.90;;;2.60;;
8365;SDS011;4220;42.502;24.188;2024-03-25T13:26:15;3.97;;;3.20;;
8365;SDS011;4220;42.502;24.188;2024-03-25T13:28:41;3.23;;;2.73;;
8365;SDS011;4220;42.502;24.188;2024-03-25T13:31:08;4.07;;;2.80;;
8365;SDS011;4220;42.502;24.188;2024-03-25T13:33:34;5.13;;;3.67;;
8365;SDS011;4220;42.502;24.188;2024-03-25T13:35:59;4.17;;;2.93;;
8365;SDS011;4220;42.502;24.188;2024-03-25T13:38:25;5.50;;;4.30;;
8365;SDS011;4220;42.502;24.188;2024-03-25T13:40:51;7.17;;;5.00;;
8365;SDS011;4220;42.502;24.188;2024-03-25T13:43:17;4.50;;;3.30;;
8365;SDS011;4220;42.502;24.188;2024-03-25T13:45:46;4.50;;;3.33;;
8365;SDS011;4220;42.502;24.188;2024-03-25T13:48:14;4.63;;;3.00;;
8365;SDS011;4220;42.502;24.188;2024-03-25T13:50:40;15.70;;;8.47;;
8365;SDS011;4220;42.502;24.188;2024-03-25T13:53:06;6.13;;;4.00;;
8365;SDS011;4220;42.502;24.188;2024-03-25T13:55:33;9.13;;;3.77;;
8365;SDS011;4220;42.502;24.188;2024-03-25T13:57:58;10.53;;;5.17;;
8365;SDS011;4220;42.502;24.188;2024-03-25T14:00:24;10.60;;;6.10;;
8365;SDS011;4220;42.502;24.188;2024-03-25T14:02:50;3.80;;;2.67;;
8365;SDS011;4220;42.502;24.188;2024-03-25T14:05:17;4.53;;;3.00;;
8365;SDS011;4220;42.502;24.188;2024-03-25T14:07:43;2.93;;;2.50;;
8365;SDS011;4220;42.502;24.188;2024-03-25T14:10:09;4.45;;;2.72;;
8365;SDS011;4220;42.502;24.188;2024-03-25T14:12:35;4.68;;;3.85;;
8365;SDS011;4220;42.502;24.188;2024-03-25T14:15:01;3.53;;;2.57;;
8365;SDS011;4220;42.502;24.188;2024-03-25T14:17:27;2.47;;;2.27;;
8365;SDS011;4220;42.502;24.188;2024-03-25T14:19:53;2.93;;;2.17;;
8365;SDS011;4220;42.502;24.188;2024-03-25T14:22:22;3.60;;;3.10;;
8365;SDS011;4220;42.502;24.188;2024-03-25T14:24:48;16.30;;;4.97;;
8365;SDS011;4220;42.502;24.188;2024-03-25T14:27:14;5.70;;;4.70;;
8365;SDS011;4220;42.502;24.188;2024-03-25T14:29:40;11.67;;;7.00;;
8365;SDS011;4220;42.502;24.188;2024-03-25T14:32:07;10.50;;;5.93;;
8365;SDS011;4220;42.502;24.188;2024-03-25T14:34:33;22.63;;;12.23;;
8365;SDS011;4220;42.502;24.188;2024-03-25T14:36:59;8.87;;;5.13;;
8365;SDS011;4220;42.502;24.188;2024-03-25T14:39:27;18.07;;;8.90;;
8365;SDS011;4220;42.502;24.188;2024-03-25T14:41:52;4.20;;;3.47;;
8365;SDS011;4220;42.502;24.188;2024-03-25T14:44:18;5.00;;;4.07;;
8365;SDS011;4220;42.502;24.188;2024-03-25T14:46:44;5.68;;;4.28;;
8365;SDS011;4220;42.502;24.188;2024-03-25T14:49:10;4.00;;;2.90;;
8365;SDS011;4220;42.502;24.188;2024-03-25T14:51:35;6.97;;;4.13;;
8365;SDS011;4220;42.502;24.188;2024-03-25T14:54:01;5.87;;;2.90;;
8365;SDS011;4220;42.502;24.188;2024-03-25T14:56:29;4.68;;;3.60;;